Aérodrome :
LOGIN :

S'inscrire | Disclaimer

   EN    FR    IT 

 










Légende :    VFR   VFR Marginal   IFR   IFR Intensif   IFR Très Intensif
Visi : 
Plafond : 
>= 8 km
>= 3000ft
5 à 8 km
1000 à 3000 ft
1500m à 5 km
500 à 1000 ft
800 à 1500m
200 à 500 ft
< 800m
< 200 ft
Symboles :   Orages  Brouillard  Fortes neiges  Fortes précipitations  Vent > 20 kt
SIGMETs :   Divers  Orages  Givrage  Turbulence  Onde Orograph.  Cendres Volcan.







- Altitude de l'aérodrome : 1260 ft
- Code IATA : LDE
- Voir les cartes d'approche


LFBT - Tarbes / Ossun

DERNIER METAR :
  • 172230Z AUTO 19007KT 9999 SCT072 OVC082 04/03 Q1021 TEMPO 4000 SHRA BKN015 SCT020TCU

METARs EXPIRÉS :
  • 172200Z AUTO 20007KT 9999 FEW024/// SCT036/// BKN056/// ///TCU 04/03 Q1021 TEMPO 4000 SHRA
  • 172130Z AUTO 29008KT 9999 RA FEW015/// BKN022/// BKN031/// ///CB 04/03 Q1021 TEMPO 4000 SHRA
  • 172100Z AUTO 20002KT 9999 FEW022/// BKN060/// OVC100/// ///CB 04/03 Q1020 TEMPO 4000 SHRA
  • 172030Z AUTO 22005KT 9999 FEW021/// SCT100/// ///CB 03/02 Q1020 TEMPO 4000 SHRA
  • 172000Z AUTO 22007KT 9999 FEW028 SCT086 04/02 Q1020 TEMPO 4000 SHRA BKN015 SCT020TCU

TAF TAF LFBT
Valide du 17 à 18h jusqu'au 18 à 18h UTC


171700Z 1718/1818 22008KT 9999 BKN030 BKN045
PROB40
TEMPO 1718/1724 4000 SHRA BKN015 SCT020TCU
BECMG 1800/1802 BKN050
TEMPO 1815/1818 BKN025
Pas de NOTAMs connus pour ce terrain.



MET'MAP, la Météo Aéronautique d'un coup d'oeil ! - Copyright ORBIFLY Décembre 2007 - Disclaimer

ORBIFLY MET'MAP TEAM :

Programmation & Développement : Alexandra Zaïnal
Conception & Développement : Baudouin d'Aumeries
Co-Programmation & Développement : Marc-Olivier Méhu
Soutien technique & logistique : Manuel Goepfert

Contact : metmap@orbifly.com




SOURCES & CREDITS :

   NOAA